createdAt,value
2023-05-14T00:01:10.315Z,94.02
2023-05-14T00:03:39.864Z,93.49
2023-05-14T00:06:08.095Z,93.40
2023-05-14T00:08:35.766Z,91.77
2023-05-14T00:11:03.277Z,91.35
2023-05-14T00:13:30.444Z,91.07
2023-05-14T00:15:57.643Z,89.77
2023-05-14T00:18:25.134Z,90.09
2023-05-14T00:20:54.873Z,89.03
2023-05-14T00:23:22.685Z,88.97
2023-05-14T00:25:50.469Z,87.80
2023-05-14T00:28:17.669Z,89.13
2023-05-14T00:30:44.900Z,89.11
2023-05-14T00:33:12.386Z,89.33
2023-05-14T00:35:39.690Z,89.29
2023-05-14T00:38:06.885Z,89.75
2023-05-14T00:40:34.756Z,89.19
2023-05-14T00:43:01.961Z,90.68
2023-05-14T00:45:29.210Z,91.47
2023-05-14T00:47:56.706Z,90.82
2023-05-14T00:50:24.101Z,89.62
2023-05-14T00:52:51.515Z,90.04
2023-05-14T00:55:19.119Z,89.70
2023-05-14T00:57:46.506Z,90.06
2023-05-14T01:00:13.995Z,90.27
2023-05-14T01:02:41.466Z,90.22
2023-05-14T01:05:09.237Z,89.82
2023-05-14T01:07:48.316Z,89.58
2023-05-14T01:10:36.763Z,89.41
2023-05-14T01:13:28.561Z,88.35
2023-05-14T01:15:58.602Z,88.86
2023-05-14T01:18:26.234Z,88.04
2023-05-14T01:20:54.212Z,88.50
2023-05-14T01:23:21.624Z,87.33
2023-05-14T01:25:48.757Z,87.09
2023-05-14T01:28:19.890Z,87.20
2023-05-14T01:30:59.278Z,88.19
2023-05-14T01:33:27.884Z,88.64
2023-05-14T01:35:55.924Z,88.16
2023-05-14T01:38:23.795Z,87.70
2023-05-14T01:40:51.151Z,87.97
2023-05-14T01:43:19.272Z,89.94
2023-05-14T01:45:46.831Z,87.45
2023-05-14T01:48:15.145Z,87.12
2023-05-14T01:50:42.490Z,87.89
2023-05-14T01:53:09.649Z,88.06
2023-05-14T01:55:36.760Z,88.09
2023-05-14T01:58:04.249Z,88.81
2023-05-14T02:00:31.837Z,89.78
2023-05-14T02:02:59.493Z,91.12
2023-05-14T02:05:26.698Z,89.70
2023-05-14T02:07:54.553Z,89.91
2023-05-14T02:10:22.169Z,88.47
2023-05-14T02:12:49.934Z,88.45
2023-05-14T02:15:17.141Z,87.62
2023-05-14T02:17:44.387Z,87.65
2023-05-14T02:20:12.809Z,88.21
2023-05-14T02:22:45.610Z,86.55
2023-05-14T02:25:13.124Z,85.99
2023-05-14T02:27:40.308Z,86.20
2023-05-14T02:30:08.085Z,87.62
2023-05-14T02:32:35.655Z,85.72
2023-05-14T02:35:03.057Z,86.50
2023-05-14T02:37:30.320Z,85.60
2023-05-14T02:39:58.009Z,86.54
2023-05-14T02:42:25.111Z,86.61
2023-05-14T02:44:52.394Z,85.65
2023-05-14T02:47:19.798Z,85.39
2023-05-14T02:49:46.895Z,86.06
2023-05-14T02:52:14.062Z,85.71
2023-05-14T02:54:41.474Z,85.63
2023-05-14T02:57:08.740Z,85.19
2023-05-14T02:59:36.448Z,85.58
2023-05-14T03:02:04.471Z,85.25
2023-05-14T03:04:32.708Z,85.45
2023-05-14T03:06:59.828Z,85.62
2023-05-14T03:09:27.634Z,86.53
2023-05-14T03:11:55.017Z,85.59
2023-05-14T03:14:22.472Z,85.04
2023-05-14T03:16:50.206Z,85.30
2023-05-14T03:19:18.320Z,84.83
2023-05-14T03:21:45.705Z,84.89
2023-05-14T03:24:13.135Z,84.59
2023-05-14T03:26:40.289Z,84.30
2023-05-14T03:29:07.741Z,84.87
2023-05-14T03:31:35.134Z,82.88
2023-05-14T03:34:02.299Z,82.88
2023-05-14T03:36:29.437Z,83.25
2023-05-14T03:38:56.868Z,83.16
2023-05-14T03:41:24.055Z,83.54
2023-05-14T03:43:51.220Z,83.25
2023-05-14T03:46:18.697Z,82.91
2023-05-14T03:48:46.077Z,82.49
2023-05-14T03:51:13.358Z,82.60
2023-05-14T03:53:41.320Z,81.78
2023-05-14T03:56:08.468Z,81.69
2023-05-14T03:58:36.146Z,82.11
2023-05-14T04:01:03.562Z,81.24
2023-05-14T04:03:31.240Z,82.94
2023-05-14T04:05:58.666Z,83.28
2023-05-14T04:08:25.790Z,83.14
2023-05-14T04:10:53.345Z,83.66
2023-05-14T04:13:23.174Z,82.73
2023-05-14T04:15:50.484Z,82.88
2023-05-14T04:18:18.389Z,82.50
2023-05-14T04:20:45.571Z,81.94
2023-05-14T04:23:12.774Z,81.84
2023-05-14T04:25:40.229Z,82.59
2023-05-14T04:28:07.317Z,82.39
2023-05-14T04:30:34.433Z,82.32
2023-05-14T04:33:02.495Z,81.21
2023-05-14T04:35:29.706Z,81.84
2023-05-14T04:37:56.881Z,82.60
2023-05-14T04:40:24.553Z,82.71
2023-05-14T04:42:51.983Z,83.29
2023-05-14T04:45:19.215Z,81.75
2023-05-14T04:47:46.708Z,81.51
2023-05-14T04:50:14.253Z,82.98
2023-05-14T04:52:41.600Z,81.60
2023-05-14T04:55:09.813Z,81.55
2023-05-14T04:57:37.077Z,81.50
2023-05-14T05:00:07.722Z,82.58
2023-05-14T05:02:35.197Z,82.45
2023-05-14T05:05:04.095Z,80.75
2023-05-14T05:07:31.342Z,81.74
2023-05-14T05:09:58.800Z,82.16
2023-05-14T05:12:26.374Z,82.28
2023-05-14T05:14:53.561Z,82.97
2023-05-14T05:17:21.142Z,81.88
2023-05-14T05:19:48.412Z,83.28
2023-05-14T05:22:15.774Z,83.80
2023-05-14T05:24:43.209Z,83.12
2023-05-14T05:27:10.538Z,83.64
2023-05-14T05:29:37.931Z,82.88
2023-05-14T05:32:06.090Z,81.96
2023-05-14T05:34:33.515Z,83.21
2023-05-14T05:37:00.732Z,82.79
2023-05-14T05:39:28.223Z,82.45
2023-05-14T05:41:55.422Z,82.51
2023-05-14T05:44:22.594Z,81.99
2023-05-14T05:46:51.119Z,83.94
2023-05-14T05:49:18.423Z,82.23
2023-05-14T05:51:45.586Z,82.75
2023-05-14T05:54:13.026Z,83.58
2023-05-14T05:56:40.312Z,82.40
2023-05-14T05:59:07.501Z,81.03
2023-05-14T06:01:35.313Z,82.68
2023-05-14T06:04:04.462Z,83.35
2023-05-14T06:06:32.893Z,83.87
2023-05-14T06:09:01.799Z,84.68
2023-05-14T06:11:29.224Z,84.93
2023-05-14T06:13:56.503Z,85.24
2023-05-14T06:16:23.726Z,84.76
2023-05-14T06:18:52.732Z,86.30
2023-05-14T06:21:20.002Z,84.99
2023-05-14T06:23:47.275Z,85.69
2023-05-14T06:26:14.792Z,86.15
2023-05-14T06:28:41.932Z,86.19
2023-05-14T06:31:09.529Z,86.15
2023-05-14T06:33:37.020Z,87.01
2023-05-14T06:36:06.077Z,87.99
2023-05-14T06:38:33.426Z,89.02
2023-05-14T06:41:00.832Z,88.27
2023-05-14T06:43:28.529Z,87.75
2023-05-14T06:45:55.729Z,88.11
2023-05-14T06:48:23.204Z,89.06
2023-05-14T06:50:50.373Z,88.49
2023-05-14T06:53:17.498Z,88.49
2023-05-14T06:55:45.041Z,87.28
2023-05-14T06:58:12.121Z,87.25
2023-05-14T07:00:39.902Z,87.89
2023-05-14T07:03:07.396Z,86.85
2023-05-14T07:05:34.677Z,88.14
2023-05-14T07:08:01.886Z,88.37
2023-05-14T07:10:29.314Z,90.53
2023-05-14T07:12:56.459Z,89.18
2023-05-14T07:15:23.660Z,88.34
2023-05-14T07:17:51.202Z,88.57
2023-05-14T07:20:18.317Z,87.48
2023-05-14T07:22:45.382Z,88.79
2023-05-14T07:25:12.756Z,87.05
2023-05-14T07:27:39.850Z,87.78
2023-05-14T07:30:08.180Z,89.40
2023-05-14T07:32:35.667Z,88.78
2023-05-14T07:35:02.866Z,88.03
2023-05-14T07:37:30.069Z,87.19
2023-05-14T07:39:57.452Z,88.65
2023-05-14T07:42:35.111Z,89.39
2023-05-14T07:45:03.973Z,88.77
2023-05-14T07:47:32.244Z,88.55
2023-05-14T07:49:59.521Z,86.54
2023-05-14T07:52:26.989Z,86.96
2023-05-14T07:54:54.108Z,88.16
2023-05-14T07:57:22.095Z,88.08
2023-05-14T07:59:49.716Z,87.26
2023-05-14T08:02:17.732Z,88.68
2023-05-14T08:04:45.389Z,89.46
2023-05-14T08:07:12.654Z,89.78
2023-05-14T08:09:39.918Z,89.27
2023-05-14T08:12:08.362Z,90.01
2023-05-14T08:14:35.578Z,90.08
2023-05-14T08:17:03.453Z,87.93
2023-05-14T08:19:30.916Z,87.72
2023-05-14T08:21:58.085Z,87.77
2023-05-14T08:24:25.389Z,91.48
2023-05-14T08:26:53.069Z,91.93
2023-05-14T08:29:20.701Z,90.98
2023-05-14T08:31:49.417Z,90.37
2023-05-14T08:34:17.049Z,87.98
2023-05-14T08:36:44.438Z,87.96
2023-05-14T08:39:11.644Z,90.18
2023-05-14T08:41:39.934Z,87.64
2023-05-14T08:44:11.464Z,87.82
2023-05-14T08:46:39.965Z,88.09
2023-05-14T08:49:46.666Z,88.29
2023-05-14T08:52:16.356Z,86.98
2023-05-14T08:54:43.577Z,86.79
2023-05-14T08:57:11.350Z,86.08
2023-05-14T08:59:38.739Z,88.14
2023-05-14T09:02:06.474Z,88.55
2023-05-14T09:04:33.978Z,86.96
2023-05-14T09:07:02.663Z,87.60
2023-05-14T09:09:29.891Z,86.87
2023-05-14T09:11:56.957Z,86.80
2023-05-14T09:14:24.383Z,86.94
2023-05-14T09:16:51.679Z,87.01
2023-05-14T09:19:19.721Z,88.24
2023-05-14T09:21:49.029Z,88.25
2023-05-14T09:24:24.045Z,89.57
2023-05-14T09:26:55.003Z,89.28
2023-05-14T09:29:24.871Z,89.39
2023-05-14T09:31:52.639Z,89.17
2023-05-14T09:34:30.995Z,89.12
2023-05-14T09:36:59.124Z,89.87
2023-05-14T09:39:26.816Z,88.55
2023-05-14T09:41:54.826Z,90.35
2023-05-14T09:44:22.657Z,90.85
2023-05-14T09:46:50.524Z,92.02
2023-05-14T09:49:17.934Z,95.93
2023-05-14T09:51:45.621Z,96.68
2023-05-14T09:54:12.993Z,97.70
2023-05-14T09:56:40.345Z,98.50
2023-05-14T09:59:07.832Z,96.00
2023-05-14T10:01:35.384Z,95.34
2023-05-14T10:04:04.560Z,94.33
2023-05-14T10:06:34.484Z,93.13
2023-05-14T10:09:03.988Z,93.06
2023-05-14T10:11:34.229Z,91.98
2023-05-14T10:14:39.892Z,91.38
2023-05-14T10:17:07.970Z,90.37
2023-05-14T10:19:36.853Z,92.75
2023-05-14T10:22:05.880Z,92.23
2023-05-14T10:24:33.774Z,91.08
2023-05-14T10:27:01.330Z,92.57
2023-05-14T10:29:33.665Z,93.28
2023-05-14T10:32:09.146Z,90.88
2023-05-14T10:34:41.465Z,89.92
2023-05-14T10:37:14.153Z,90.17
2023-05-14T10:39:44.908Z,90.79
2023-05-14T10:42:13.997Z,92.01
2023-05-14T10:44:48.164Z,91.88
2023-05-14T10:47:17.474Z,92.95
2023-05-14T10:49:48.930Z,93.71
2023-05-14T10:52:19.895Z,93.21
2023-05-14T10:54:55.380Z,94.54
2023-05-14T10:57:24.959Z,93.37
2023-05-14T10:59:54.877Z,91.78
2023-05-14T11:02:28.140Z,91.34
2023-05-14T11:05:05.658Z,92.17
2023-05-14T11:07:35.057Z,91.34
2023-05-14T11:10:02.173Z,91.14
2023-05-14T11:12:29.577Z,90.21
2023-05-14T11:14:58.996Z,88.98
2023-05-14T11:17:30.104Z,89.47
2023-05-14T11:19:58.434Z,89.94
2023-05-14T11:22:25.807Z,91.05
2023-05-14T11:24:53.041Z,89.82
2023-05-14T11:27:22.402Z,90.06
2023-05-14T11:29:49.932Z,89.80
2023-05-14T11:32:17.653Z,89.09
2023-05-14T11:34:45.981Z,90.14
2023-05-14T11:37:14.877Z,89.36
2023-05-14T11:39:53.812Z,90.55
2023-05-14T11:42:22.404Z,90.48
2023-05-14T11:44:51.563Z,90.93
2023-05-14T11:47:20.343Z,90.44
2023-05-14T11:49:48.632Z,92.65
2023-05-14T11:52:19.291Z,92.21
2023-05-14T11:54:47.527Z,94.33
2023-05-14T11:57:18.049Z,93.70
2023-05-14T11:59:45.635Z,94.02
2023-05-14T12:02:14.794Z,94.06
2023-05-14T12:04:43.101Z,95.69
2023-05-14T12:07:10.137Z,95.69
2023-05-14T12:09:39.293Z,96.47
2023-05-14T12:12:11.530Z,96.98
2023-05-14T12:14:41.540Z,96.55
2023-05-14T12:17:17.759Z,95.80
2023-05-14T12:19:46.746Z,98.13
2023-05-14T12:22:16.366Z,97.70
2023-05-14T12:24:44.000Z,96.86
2023-05-14T12:27:11.261Z,97.06
2023-05-14T12:29:39.111Z,96.10
2023-05-14T12:32:10.021Z,97.29
2023-05-14T12:34:39.356Z,97.71
2023-05-14T12:37:07.590Z,95.94
2023-05-14T12:39:34.948Z,94.53
2023-05-14T12:42:02.337Z,94.47
2023-05-14T12:44:29.917Z,94.73
2023-05-14T12:46:57.776Z,95.25
2023-05-14T12:49:25.172Z,95.41
2023-05-14T12:52:03.190Z,96.20
2023-05-14T12:54:42.994Z,96.73
2023-05-14T12:57:10.545Z,98.03
2023-05-14T12:59:37.705Z,96.78
2023-05-14T13:02:04.954Z,96.75
2023-05-14T13:04:32.497Z,96.94
2023-05-14T13:07:00.252Z,98.25
2023-05-14T13:09:27.884Z,99.35
2023-05-14T13:11:55.332Z,99.78
2023-05-14T13:14:22.540Z,98.77
2023-05-14T13:16:49.735Z,99.58
2023-05-14T13:19:17.321Z,98.46
2023-05-14T13:21:44.508Z,98.04
2023-05-14T13:24:11.700Z,98.68
2023-05-14T13:26:39.186Z,98.94
2023-05-14T13:29:06.684Z,99.60
2023-05-14T13:31:34.059Z,99.93
2023-05-14T13:34:02.587Z,100.00
2023-05-14T13:36:32.272Z,100.00
2023-05-14T13:38:59.453Z,100.00
2023-05-14T13:41:26.901Z,100.00
2023-05-14T13:43:54.149Z,100.00
2023-05-14T13:46:21.360Z,100.00
2023-05-14T13:48:49.100Z,100.00
2023-05-14T13:51:16.197Z,100.00
2023-05-14T13:53:43.958Z,100.00
2023-05-14T13:56:11.392Z,100.00
2023-05-14T13:58:38.490Z,100.00
2023-05-14T14:01:05.915Z,100.00
2023-05-14T14:03:33.504Z,100.00
2023-05-14T14:06:01.000Z,100.00
2023-05-14T14:08:28.090Z,100.00
2023-05-14T14:10:55.778Z,100.00
2023-05-14T14:13:23.217Z,100.00
2023-05-14T14:15:50.594Z,100.00
2023-05-14T14:18:18.132Z,100.00
2023-05-14T14:20:45.385Z,100.00
2023-05-14T14:23:12.587Z,100.00
2023-05-14T14:25:40.111Z,100.00
2023-05-14T14:28:07.279Z,100.00
2023-05-14T14:30:34.660Z,100.00
2023-05-14T14:33:02.197Z,100.00
2023-05-14T14:35:30.620Z,100.00
2023-05-14T14:37:57.782Z,100.00
2023-05-14T14:40:26.364Z,100.00
2023-05-14T14:42:53.695Z,100.00
2023-05-14T14:45:21.289Z,100.00
2023-05-14T14:47:49.330Z,100.00
2023-05-14T14:50:16.548Z,100.00
2023-05-14T14:52:46.073Z,100.00
2023-05-14T14:55:13.657Z,100.00
2023-05-14T14:57:40.863Z,100.00
2023-05-14T15:00:09.296Z,100.00
2023-05-14T15:02:38.553Z,100.00
2023-05-14T15:05:06.308Z,100.00
2023-05-14T15:07:33.528Z,100.00
2023-05-14T15:10:01.054Z,100.00
2023-05-14T15:12:28.221Z,100.00
2023-05-14T15:14:55.399Z,100.00
2023-05-14T15:17:22.927Z,100.00
2023-05-14T15:19:50.136Z,99.69
2023-05-14T15:22:17.308Z,100.00
2023-05-14T15:24:44.758Z,100.00
2023-05-14T15:27:11.915Z,100.00
2023-05-14T15:29:39.105Z,100.00
2023-05-14T15:32:07.087Z,100.00
2023-05-14T15:34:34.297Z,100.00
2023-05-14T15:37:01.540Z,100.00
2023-05-14T15:39:30.181Z,100.00
2023-05-14T15:41:57.571Z,100.00
2023-05-14T15:44:24.739Z,100.00
2023-05-14T15:46:52.710Z,100.00
2023-05-14T15:49:20.007Z,100.00
2023-05-14T15:51:47.268Z,98.71
2023-05-14T15:54:14.776Z,99.08
2023-05-14T15:56:41.986Z,99.14
2023-05-14T15:59:09.365Z,100.00
2023-05-14T16:01:36.902Z,100.00
2023-05-14T16:04:04.495Z,99.91
2023-05-14T16:06:32.216Z,100.00
2023-05-14T16:09:00.642Z,99.88
2023-05-14T16:11:28.115Z,100.00
2023-05-14T16:13:56.326Z,100.00
2023-05-14T16:16:23.649Z,100.00
2023-05-14T16:18:51.288Z,99.20
2023-05-14T16:21:18.443Z,100.00
2023-05-14T16:23:46.258Z,100.00
2023-05-14T16:26:13.739Z,100.00
2023-05-14T16:28:42.192Z,100.00
2023-05-14T16:31:09.387Z,100.00
2023-05-14T16:33:36.997Z,100.00
2023-05-14T16:36:04.400Z,100.00
2023-05-14T16:38:31.584Z,100.00
2023-05-14T16:40:59.080Z,100.00
2023-05-14T16:43:26.341Z,100.00
2023-05-14T16:45:53.572Z,100.00
2023-05-14T16:48:21.224Z,100.00
2023-05-14T16:50:48.410Z,100.00
2023-05-14T16:53:15.780Z,100.00
2023-05-14T16:55:43.271Z,100.00
2023-05-14T16:58:10.678Z,100.00
2023-05-14T17:00:37.835Z,100.00
2023-05-14T17:03:06.445Z,100.00
2023-05-14T17:05:35.121Z,100.00
2023-05-14T17:08:02.640Z,100.00
2023-05-14T17:10:30.900Z,100.00
2023-05-14T17:12:58.052Z,100.00
2023-05-14T17:15:25.729Z,100.00
2023-05-14T17:17:53.457Z,100.00
2023-05-14T17:20:20.712Z,100.00
2023-05-14T17:22:47.946Z,100.00
2023-05-14T17:25:15.696Z,99.98
2023-05-14T17:27:42.865Z,100.00
2023-05-14T17:30:10.462Z,100.00
2023-05-14T17:32:39.820Z,100.00
2023-05-14T17:35:09.568Z,100.00
2023-05-14T17:37:37.023Z,100.00
2023-05-14T17:40:04.915Z,100.00
2023-05-14T17:42:32.094Z,100.00
2023-05-14T17:44:59.347Z,100.00
2023-05-14T17:47:26.933Z,100.00
2023-05-14T17:49:54.259Z,100.00
2023-05-14T17:52:21.482Z,100.00
2023-05-14T17:54:49.083Z,100.00
2023-05-14T17:57:16.224Z,100.00
2023-05-14T17:59:43.430Z,100.00
2023-05-14T18:02:10.947Z,100.00
2023-05-14T18:04:38.481Z,100.00
2023-05-14T18:07:05.866Z,100.00
2023-05-14T18:09:33.098Z,100.00
2023-05-14T18:12:00.965Z,100.00
2023-05-14T18:14:28.140Z,100.00
2023-05-14T18:16:56.085Z,100.00
2023-05-14T18:19:25.740Z,100.00
2023-05-14T18:21:55.447Z,100.00
2023-05-14T18:24:22.834Z,100.00
2023-05-14T18:26:50.314Z,100.00
2023-05-14T18:29:17.537Z,100.00
2023-05-14T18:31:44.736Z,100.00
2023-05-14T18:34:12.215Z,100.00
2023-05-14T18:36:39.372Z,100.00
2023-05-14T18:39:06.573Z,100.00
2023-05-14T18:41:34.103Z,100.00
2023-05-14T18:44:02.315Z,100.00
2023-05-14T18:46:29.612Z,100.00
2023-05-14T18:48:57.331Z,100.00
2023-05-14T18:51:24.632Z,100.00
2023-05-14T18:53:51.974Z,100.00
2023-05-14T18:56:19.418Z,100.00
2023-05-14T18:58:46.596Z,100.00
2023-05-14T19:01:13.851Z,100.00
2023-05-14T19:03:42.266Z,100.00
2023-05-14T19:06:09.596Z,100.00
2023-05-14T19:08:36.827Z,100.00
2023-05-14T19:11:04.446Z,100.00
2023-05-14T19:13:31.680Z,100.00
2023-05-14T19:15:58.964Z,100.00
2023-05-14T19:18:26.482Z,100.00
2023-05-14T19:20:53.669Z,100.00
2023-05-14T19:23:20.803Z,100.00
2023-05-14T19:25:48.265Z,100.00
2023-05-14T19:28:15.451Z,100.00
2023-05-14T19:30:42.707Z,100.00
2023-05-14T19:33:10.239Z,100.00
2023-05-14T19:35:37.474Z,100.00
2023-05-14T19:38:04.717Z,100.00
2023-05-14T19:40:32.172Z,100.00
2023-05-14T19:42:59.405Z,100.00
2023-05-14T19:45:26.995Z,100.00
2023-05-14T19:47:54.734Z,100.00
2023-05-14T19:50:21.953Z,100.00
2023-05-14T19:52:49.249Z,100.00
2023-05-14T19:55:16.724Z,100.00
2023-05-14T19:57:43.976Z,100.00
2023-05-14T20:00:11.898Z,100.00
2023-05-14T20:02:41.953Z,100.00
2023-05-14T20:05:10.602Z,100.00
2023-05-14T20:07:39.640Z,100.00
2023-05-14T20:10:08.160Z,100.00
2023-05-14T20:12:35.618Z,100.00
2023-05-14T20:15:02.828Z,100.00
2023-05-14T20:17:30.127Z,100.00
2023-05-14T20:19:58.092Z,100.00
2023-05-14T20:22:25.701Z,100.00
2023-05-14T20:24:52.895Z,100.00
2023-05-14T20:27:20.443Z,100.00
2023-05-14T20:29:47.763Z,100.00
2023-05-14T20:32:15.611Z,100.00
2023-05-14T20:34:43.126Z,100.00
2023-05-14T20:37:10.289Z,100.00
2023-05-14T20:39:37.475Z,100.00
2023-05-14T20:42:05.242Z,100.00
2023-05-14T20:44:32.422Z,100.00
2023-05-14T20:46:59.664Z,100.00
2023-05-14T20:49:27.660Z,100.00
2023-05-14T20:51:54.816Z,100.00
2023-05-14T20:54:21.965Z,100.00
2023-05-14T20:56:49.377Z,100.00
2023-05-14T20:59:16.543Z,100.00
2023-05-14T21:01:43.788Z,100.00
2023-05-14T21:04:11.523Z,100.00
2023-05-14T21:06:38.813Z,100.00
2023-05-14T21:09:05.997Z,100.00
2023-05-14T21:11:33.474Z,100.00
2023-05-14T21:14:00.931Z,100.00
2023-05-14T21:16:28.173Z,100.00
2023-05-14T21:18:55.659Z,100.00
2023-05-14T21:21:22.995Z,100.00
2023-05-14T21:23:50.316Z,100.00
2023-05-14T21:26:17.830Z,100.00
2023-05-14T21:28:45.972Z,100.00
2023-05-14T21:31:13.180Z,100.00
2023-05-14T21:33:41.009Z,100.00
2023-05-14T21:36:08.956Z,100.00
2023-05-14T21:38:36.338Z,100.00
2023-05-14T21:41:03.849Z,100.00
2023-05-14T21:43:31.041Z,100.00
2023-05-14T21:45:58.202Z,100.00
2023-05-14T21:48:26.036Z,100.00
2023-05-14T21:50:53.296Z,100.00
2023-05-14T21:53:20.617Z,100.00
2023-05-14T21:55:49.806Z,100.00
2023-05-14T21:58:16.979Z,100.00
2023-05-14T22:00:44.150Z,100.00
2023-05-14T22:03:11.729Z,100.00
2023-05-14T22:05:38.969Z,100.00
2023-05-14T22:08:06.419Z,100.00
2023-05-14T22:10:34.896Z,100.00
2023-05-14T22:13:02.065Z,100.00
2023-05-14T22:15:29.223Z,100.00
2023-05-14T22:17:56.995Z,100.00
2023-05-14T22:20:24.279Z,100.00
2023-05-14T22:22:51.650Z,100.00
2023-05-14T22:25:19.171Z,100.00
2023-05-14T22:27:46.348Z,100.00
2023-05-14T22:30:13.545Z,100.00
2023-05-14T22:32:40.974Z,100.00
2023-05-14T22:35:08.583Z,100.00
2023-05-14T22:37:35.764Z,100.00
2023-05-14T22:40:05.208Z,100.00
2023-05-14T22:42:32.388Z,100.00
2023-05-14T22:44:59.540Z,100.00
2023-05-14T22:47:27.155Z,100.00
2023-05-14T22:49:54.312Z,100.00
2023-05-14T22:52:21.505Z,100.00
2023-05-14T22:54:51.737Z,100.00
2023-05-14T22:57:18.946Z,100.00
2023-05-14T22:59:46.108Z,100.00
2023-05-14T23:02:13.576Z,100.00
2023-05-14T23:04:40.835Z,100.00
2023-05-14T23:07:08.124Z,100.00
2023-05-14T23:09:35.589Z,100.00
2023-05-14T23:12:02.818Z,100.00
2023-05-14T23:14:30.030Z,100.00
2023-05-14T23:16:57.568Z,100.00
2023-05-14T23:19:24.839Z,100.00
2023-05-14T23:21:52.317Z,100.00
2023-05-14T23:24:19.756Z,100.00
2023-05-14T23:26:47.204Z,100.00
2023-05-14T23:29:14.350Z,100.00
2023-05-14T23:31:43.588Z,100.00
2023-05-14T23:34:10.852Z,100.00
2023-05-14T23:36:39.708Z,100.00
2023-05-14T23:39:07.176Z,100.00
2023-05-14T23:41:34.391Z,100.00
2023-05-14T23:44:01.590Z,100.00
2023-05-14T23:46:29.235Z,100.00
2023-05-14T23:48:57.042Z,100.00
2023-05-14T23:51:24.614Z,100.00
2023-05-14T23:53:56.284Z,100.00
2023-05-14T23:56:28.926Z,100.00
2023-05-14T23:58:56.695Z,100.00
